sensor_id;sensor_type;location;lat;lon;timestamp;pressure;altitude;pressure_sealevel;temperature;humidity
73558;BME280;61829;53.286;10.434;2023-04-09T00:00:38;102530.56;;;6.50;100.00
73558;BME280;61829;53.286;10.434;2023-04-09T00:03:24;102533.25;;;6.50;100.00
73558;BME280;61829;53.286;10.434;2023-04-09T00:05:50;102534.25;;;6.49;100.00
73558;BME280;61829;53.286;10.434;2023-04-09T00:08:17;102538.63;;;6.50;100.00
73558;BME280;61829;53.286;10.434;2023-04-09T00:10:43;102537.78;;;6.49;100.00
73558;BME280;61829;53.286;10.434;2023-04-09T00:13:15;102537.03;;;6.47;100.00
73558;BME280;61829;53.286;10.434;2023-04-09T00:15:41;102538.00;;;6.46;100.00
73558;BME280;61829;53.286;10.434;2023-04-09T00:18:39;102538.84;;;6.47;100.00
73558;BME280;61829;53.286;10.434;2023-04-09T00:21:04;102534.47;;;6.46;100.00
73558;BME280;61829;53.286;10.434;2023-04-09T00:23:31;102535.44;;;6.45;100.00
73558;BME280;61829;53.286;10.434;2023-04-09T00:25:57;102536.28;;;6.45;100.00
73558;BME280;61829;53.286;10.434;2023-04-09T00:28:23;102533.72;;;6.44;100.00
73558;BME280;61829;53.286;10.434;2023-04-09T00:30:49;102530.06;;;6.45;100.00
73558;BME280;61829;53.286;10.434;2023-04-09T00:33:14;102527.38;;;6.45;100.00
73558;BME280;61829;53.286;10.434;2023-04-09T00:35:40;102530.81;;;6.47;100.00
73558;BME280;61829;53.286;10.434;2023-04-09T00:38:06;102524.47;;;6.48;100.00
73558;BME280;61829;53.286;10.434;2023-04-09T00:40:32;102527.91;;;6.50;100.00
73558;BME280;61829;53.286;10.434;2023-04-09T00:42:58;102526.91;;;6.51;100.00
73558;BME280;61829;53.286;10.434;2023-04-09T00:45:24;102527.16;;;6.48;100.00
73558;BME280;61829;53.286;10.434;2023-04-09T00:47:50;102528.13;;;6.47;100.00
73558;BME280;61829;53.286;10.434;2023-04-09T00:50:16;102521.94;;;6.46;100.00
73558;BME280;61829;53.286;10.434;2023-04-09T00:52:44;102516.81;;;6.43;100.00
73558;BME280;61829;53.286;10.434;2023-04-09T00:55:13;102528.47;;;6.42;100.00
73558;BME280;61829;53.286;10.434;2023-04-09T00:57:39;102532.88;;;6.43;100.00
73558;BME280;61829;53.286;10.434;2023-04-09T01:03:46;102516.41;;;6.37;100.00
73558;BME280;61829;53.286;10.434;2023-04-09T01:06:30;102517.50;;;6.34;100.00
73558;BME280;61829;53.286;10.434;2023-04-09T01:09:24;102522.00;;;6.34;100.00
73558;BME280;61829;53.286;10.434;2023-04-09T01:17:19;102521.59;;;6.27;100.00
73558;BME280;61829;53.286;10.434;2023-04-09T01:19:58;102524.28;;;6.27;100.00
73558;BME280;61829;53.286;10.434;2023-04-09T01:25:24;102524.28;;;6.27;100.00
73558;BME280;61829;53.286;10.434;2023-04-09T01:28:17;102520.75;;;6.26;100.00
73558;BME280;61829;53.286;10.434;2023-04-09T01:30:47;102515.50;;;6.25;100.00
73558;BME280;61829;53.286;10.434;2023-04-09T01:33:15;102514.66;;;6.24;100.00
73558;BME280;61829;53.286;10.434;2023-04-09T01:35:43;102515.63;;;6.23;100.00
73558;BME280;61829;53.286;10.434;2023-04-09T01:38:11;102515.50;;;6.25;100.00
73558;BME280;61829;53.286;10.434;2023-04-09T01:40:38;102515.41;;;6.26;100.00
73558;BME280;61829;53.286;10.434;2023-04-09T01:43:06;102517.00;;;6.29;100.00
73558;BME280;61829;53.286;10.434;2023-04-09T01:45:33;102516.03;;;6.30;100.00
73558;BME280;61829;53.286;10.434;2023-04-09T01:47:59;102513.47;;;6.28;100.00
73558;BME280;61829;53.286;10.434;2023-04-09T01:50:26;102513.34;;;6.30;100.00
73558;BME280;61829;53.286;10.434;2023-04-09T01:52:52;102507.38;;;6.26;100.00
73558;BME280;61829;53.286;10.434;2023-04-09T01:55:18;102511.88;;;6.26;100.00
73558;BME280;61829;53.286;10.434;2023-04-09T01:57:44;102510.91;;;6.27;100.00
73558;BME280;61829;53.286;10.434;2023-04-09T02:00:10;102507.38;;;6.26;100.00
73558;BME280;61829;53.286;10.434;2023-04-09T02:02:48;102508.47;;;6.24;100.00
73558;BME280;61829;53.286;10.434;2023-04-09T02:05:18;102501.28;;;6.24;100.00
73558;BME280;61829;53.286;10.434;2023-04-09T02:07:47;102501.41;;;6.23;100.00
73558;BME280;61829;53.286;10.434;2023-04-09T02:10:18;102497.13;;;6.20;100.00
73558;BME280;61829;53.286;10.434;2023-04-09T02:12:48;102488.34;;;6.18;100.00
73558;BME280;61829;53.286;10.434;2023-04-09T02:15:15;102499.91;;;6.19;100.00
73558;BME280;61829;53.286;10.434;2023-04-09T02:17:41;102499.06;;;6.18;100.00
73558;BME280;61829;53.286;10.434;2023-04-09T02:20:08;102491.13;;;6.17;100.00
73558;BME280;61829;53.286;10.434;2023-04-09T02:22:34;102495.63;;;6.16;100.00
73558;BME280;61829;53.286;10.434;2023-04-09T02:24:59;102492.22;;;6.14;100.00
73558;BME280;61829;53.286;10.434;2023-04-09T02:27:28;102495.03;;;6.13;100.00
73558;BME280;61829;53.286;10.434;2023-04-09T02:29:54;102497.09;;;6.09;100.00
73558;BME280;61829;53.286;10.434;2023-04-09T02:32:20;102498.03;;;6.08;100.00
73558;BME280;61829;53.286;10.434;2023-04-09T02:34:46;102500.00;;;6.06;100.00
73558;BME280;61829;53.286;10.434;2023-04-09T02:37:11;102495.72;;;6.03;100.00
73558;BME280;61829;53.286;10.434;2023-04-09T02:39:37;102501.16;;;6.02;100.00
73558;BME280;61829;53.286;10.434;2023-04-09T02:42:03;102492.53;;;5.98;100.00
73558;BME280;61829;53.286;10.434;2023-04-09T02:44:29;102487.28;;;5.97;100.00
73558;BME280;61829;53.286;10.434;2023-04-09T02:46:55;102486.31;;;5.98;100.00
73558;BME280;61829;53.286;10.434;2023-04-09T02:49:20;102492.38;;;6.00;100.00
73558;BME280;61829;53.286;10.434;2023-04-09T02:51:48;102489.00;;;5.98;100.00
73558;BME280;61829;53.286;10.434;2023-04-09T02:54:18;102479.47;;;5.94;100.00
73558;BME280;61829;53.286;10.434;2023-04-09T02:56:46;102483.00;;;5.94;100.00
73558;BME280;61829;53.286;10.434;2023-04-09T02:59:11;102485.56;;;5.96;100.00
73558;BME280;61829;53.286;10.434;2023-04-09T03:01:38;102483.75;;;5.96;100.00
73558;BME280;61829;53.286;10.434;2023-04-09T03:04:03;102478.41;;;5.96;100.00
73558;BME280;61829;53.286;10.434;2023-04-09T03:06:29;102478.53;;;5.95;100.00
73558;BME280;61829;53.286;10.434;2023-04-09T03:08:55;102484.59;;;5.97;100.00
73558;BME280;61829;53.286;10.434;2023-04-09T03:11:22;102479.38;;;5.95;100.00
73558;BME280;61829;53.286;10.434;2023-04-09T03:13:49;102471.34;;;5.95;100.00
73558;BME280;61829;53.286;10.434;2023-04-09T03:16:15;102481.06;;;5.96;100.00
73558;BME280;61829;53.286;10.434;2023-04-09T03:18:41;102476.78;;;5.94;100.00
73558;BME280;61829;53.286;10.434;2023-04-09T03:21:08;102477.75;;;5.93;100.00
73558;BME280;61829;53.286;10.434;2023-04-09T03:23:37;102479.47;;;5.94;100.00
73558;BME280;61829;53.286;10.434;2023-04-09T03:26:04;102472.41;;;5.93;100.00
73558;BME280;61829;53.286;10.434;2023-04-09T03:28:30;102478.72;;;5.92;100.00
73558;BME280;61829;53.286;10.434;2023-04-09T03:30:56;102470.78;;;5.90;100.00
73558;BME280;61829;53.286;10.434;2023-04-09T03:33:23;102468.97;;;5.91;100.00
73558;BME280;61829;53.286;10.434;2023-04-09T03:35:50;102468.78;;;5.94;100.00
73558;BME280;61829;53.286;10.434;2023-04-09T03:38:16;102474.13;;;5.94;100.00
73558;BME280;61829;53.286;10.434;2023-04-09T03:40:42;102468.78;;;5.94;100.00
73558;BME280;61829;53.286;10.434;2023-04-09T03:43:08;102474.88;;;5.96;100.00
73558;BME280;61829;53.286;10.434;2023-04-09T03:45:34;102477.53;;;5.96;100.00
73558;BME280;61829;53.286;10.434;2023-04-09T03:48:00;102473.88;;;5.97;100.00
73558;BME280;61829;53.286;10.434;2023-04-09T03:50:26;102483.41;;;6.01;100.00
73558;BME280;61829;53.286;10.434;2023-04-09T03:52:51;102479.25;;;5.97;100.00
73558;BME280;61829;53.286;10.434;2023-04-09T03:55:17;102484.38;;;6.00;100.00
73558;BME280;61829;53.286;10.434;2023-04-09T03:57:43;102478.28;;;5.98;100.00
73558;BME280;61829;53.286;10.434;2023-04-09T04:00:09;102477.22;;;6.00;100.00
73558;BME280;61829;53.286;10.434;2023-04-09T04:02:35;102474.78;;;5.97;100.00
73558;BME280;61829;53.286;10.434;2023-04-09T04:05:01;102478.41;;;5.96;100.00
73558;BME280;61829;53.286;10.434;2023-04-09T04:07:27;102471.22;;;5.97;100.00
73558;BME280;61829;53.286;10.434;2023-04-09T04:09:54;102464.06;;;5.97;100.00
73558;BME280;61829;53.286;10.434;2023-04-09T04:12:19;102462.25;;;5.98;100.00
73558;BME280;61829;53.286;10.434;2023-04-09T04:14:45;102463.94;;;5.99;100.00
73558;BME280;61829;53.286;10.434;2023-04-09T04:17:11;102469.41;;;5.97;100.00
73558;BME280;61829;53.286;10.434;2023-04-09T04:19:39;102466.00;;;5.95;100.00
73558;BME280;61829;53.286;10.434;2023-04-09T04:22:05;102474.03;;;5.95;100.00
73558;BME280;61829;53.286;10.434;2023-04-09T04:24:31;102460.75;;;5.94;100.00
73558;BME280;61829;53.286;10.434;2023-04-09T04:26:56;102461.69;;;5.93;100.00
73558;BME280;61829;53.286;10.434;2023-04-09T04:29:22;102459.00;;;5.93;100.00
73558;BME280;61829;53.286;10.434;2023-04-09T04:31:48;102470.69;;;5.92;100.00
73558;BME280;61829;53.286;10.434;2023-04-09T04:34:17;102483.09;;;5.93;100.00
73558;BME280;61829;53.286;10.434;2023-04-09T04:36:42;102469.09;;;5.89;100.00
73558;BME280;61829;53.286;10.434;2023-04-09T04:39:08;102471.88;;;5.88;100.00
73558;BME280;61829;53.286;10.434;2023-04-09T04:41:34;102475.41;;;5.88;100.00
73558;BME280;61829;53.286;10.434;2023-04-09T04:44:01;102485.16;;;5.89;100.00
73558;BME280;61829;53.286;10.434;2023-04-09T04:46:27;102491.22;;;5.91;100.00
73558;BME280;61829;53.286;10.434;2023-04-09T04:48:53;102487.59;;;5.92;100.00
73558;BME280;61829;53.286;10.434;2023-04-09T04:51:19;102485.78;;;5.93;100.00
73558;BME280;61829;53.286;10.434;2023-04-09T04:53:45;102492.94;;;5.92;100.00
73558;BME280;61829;53.286;10.434;2023-04-09T04:56:14;102491.13;;;5.93;100.00
73558;BME280;61829;53.286;10.434;2023-04-09T04:58:41;102488.34;;;5.94;100.00
73558;BME280;61829;53.286;10.434;2023-04-09T05:01:07;102484.72;;;5.95;100.00
73558;BME280;61829;53.286;10.434;2023-04-09T05:03:32;102489.00;;;5.98;100.00
73558;BME280;61829;53.286;10.434;2023-04-09T05:05:58;102487.78;;;6.02;100.00
73558;BME280;61829;53.286;10.434;2023-04-09T05:08:24;102483.19;;;6.04;100.00
73558;BME280;61829;53.286;10.434;2023-04-09T05:10:53;102491.81;;;6.07;100.00
73558;BME280;61829;53.286;10.434;2023-04-09T05:13:21;102489.06;;;6.09;100.00
73558;BME280;61829;53.286;10.434;2023-04-09T05:15:47;102491.72;;;6.09;100.00
73558;BME280;61829;53.286;10.434;2023-04-09T05:18:13;102493.44;;;6.10;100.00
73558;BME280;61829;53.286;10.434;2023-04-09T05:20:40;102495.13;;;6.11;100.00
73558;BME280;61829;53.286;10.434;2023-04-09T05:23:06;102497.69;;;6.13;100.00
73558;BME280;61829;53.286;10.434;2023-04-09T05:25:34;102494.28;;;6.11;100.00
73558;BME280;61829;53.286;10.434;2023-04-09T05:28:00;102503.16;;;6.11;100.00
73558;BME280;61829;53.286;10.434;2023-04-09T05:30:26;102504.88;;;6.12;100.00
73558;BME280;61829;53.286;10.434;2023-04-09T05:32:51;102504.75;;;6.14;100.00
73558;BME280;61829;53.286;10.434;2023-04-09T05:35:17;102498.31;;;6.16;100.00
73558;BME280;61829;53.286;10.434;2023-04-09T05:37:43;102505.41;;;6.17;100.00
73558;BME280;61829;53.286;10.434;2023-04-09T05:40:12;102504.41;;;6.18;100.00
73558;BME280;61829;53.286;10.434;2023-04-09T05:42:38;102507.09;;;6.18;100.00
73558;BME280;61829;53.286;10.434;2023-04-09T05:45:04;102505.25;;;6.19;100.00
73558;BME280;61829;53.286;10.434;2023-04-09T05:47:30;102511.38;;;6.21;100.00
73558;BME280;61829;53.286;10.434;2023-04-09T05:49:57;102510.38;;;6.22;100.00
73558;BME280;61829;53.286;10.434;2023-04-09T05:52:23;102512.31;;;6.20;100.00
73558;BME280;61829;53.286;10.434;2023-04-09T05:54:48;102506.84;;;6.21;100.00
73558;BME280;61829;53.286;10.434;2023-04-09T05:57:14;102505.88;;;6.22;100.00
73558;BME280;61829;53.286;10.434;2023-04-09T05:59:40;102507.47;;;6.25;100.00
73558;BME280;61829;53.286;10.434;2023-04-09T06:02:06;102514.56;;;6.26;100.00
73558;BME280;61829;53.286;10.434;2023-04-09T06:04:33;102516.34;;;6.25;100.00
73558;BME280;61829;53.286;10.434;2023-04-09T06:06:59;102509.69;;;6.31;100.00
73558;BME280;61829;53.286;10.434;2023-04-09T06:09:25;102504.97;;;6.35;100.00
73558;BME280;61829;53.286;10.434;2023-04-09T06:11:52;102513.28;;;6.43;100.00
73558;BME280;61829;53.286;10.434;2023-04-09T06:14:18;102507.69;;;6.46;100.00
73558;BME280;61829;53.286;10.434;2023-04-09T06:16:44;102510.75;;;6.52;100.00
73558;BME280;61829;53.286;10.434;2023-04-09T06:19:09;102514.69;;;6.60;100.00
73558;BME280;61829;53.286;10.434;2023-04-09T06:21:37;102513.34;;;6.65;100.00
73558;BME280;61829;53.286;10.434;2023-04-09T06:24:03;102510.91;;;6.73;100.00
73558;BME280;61829;53.286;10.434;2023-04-09T06:26:29;102512.41;;;6.78;100.00
73558;BME280;61829;53.286;10.434;2023-04-09T06:28:55;102526.66;;;6.78;100.00
73558;BME280;61829;53.286;10.434;2023-04-09T06:31:21;102521.28;;;6.78;100.00
73558;BME280;61829;53.286;10.434;2023-04-09T06:33:46;102518.50;;;6.80;100.00
73558;BME280;61829;53.286;10.434;2023-04-09T06:36:12;102511.31;;;6.80;99.62
73558;BME280;61829;53.286;10.434;2023-04-09T06:38:38;102512.66;;;6.86;99.84
73558;BME280;61829;53.286;10.434;2023-04-09T06:41:04;102516.06;;;6.88;99.00
73558;BME280;61829;53.286;10.434;2023-04-09T06:43:32;102518.75;;;6.88;98.20
73558;BME280;61829;53.286;10.434;2023-04-09T06:45:58;102519.84;;;6.85;97.96
73558;BME280;61829;53.286;10.434;2023-04-09T06:48:24;102527.25;;;6.82;98.38
73558;BME280;61829;53.286;10.434;2023-04-09T06:50:51;102524.34;;;6.85;98.15
73558;BME280;61829;53.286;10.434;2023-04-09T06:53:17;102528.59;;;6.87;98.25
73558;BME280;61829;53.286;10.434;2023-04-09T06:55:43;102536.16;;;6.93;98.44
73558;BME280;61829;53.286;10.434;2023-04-09T06:58:08;102531.94;;;7.02;97.94
73558;BME280;61829;53.286;10.434;2023-04-09T07:00:35;102539.59;;;7.07;98.30
73558;BME280;61829;53.286;10.434;2023-04-09T07:03:00;102532.06;;;7.12;97.92
73558;BME280;61829;53.286;10.434;2023-04-09T07:05:26;102538.19;;;7.25;97.60
73558;BME280;61829;53.286;10.434;2023-04-09T07:07:52;102536.34;;;7.37;97.48
73558;BME280;61829;53.286;10.434;2023-04-09T07:10:18;102535.63;;;7.46;96.62
73558;BME280;61829;53.286;10.434;2023-04-09T07:12:43;102535.75;;;7.56;95.28
73558;BME280;61829;53.286;10.434;2023-04-09T07:15:09;102539.78;;;7.61;94.94
73558;BME280;61829;53.286;10.434;2023-04-09T07:17:35;102541.06;;;7.67;94.57
73558;BME280;61829;53.286;10.434;2023-04-09T07:20:01;102537.91;;;7.73;93.87
73558;BME280;61829;53.286;10.434;2023-04-09T07:22:29;102538.78;;;7.74;92.66
73558;BME280;61829;53.286;10.434;2023-04-09T07:24:55;102535.25;;;7.73;92.67
73558;BME280;61829;53.286;10.434;2023-04-09T07:27:25;102540.47;;;7.75;92.13
73558;BME280;61829;53.286;10.434;2023-04-09T07:29:56;102536.34;;;7.71;91.46
73558;BME280;61829;53.286;10.434;2023-04-09T07:32:23;102535.59;;;7.69;91.95
73558;BME280;61829;53.286;10.434;2023-04-09T07:34:52;102535.09;;;7.75;92.16
73558;BME280;61829;53.286;10.434;2023-04-09T07:37:18;102533.25;;;7.75;92.03
73558;BME280;61829;53.286;10.434;2023-04-09T07:39:45;102533.88;;;7.79;92.04
73558;BME280;61829;53.286;10.434;2023-04-09T07:42:12;102532.41;;;7.86;92.16
73558;BME280;61829;53.286;10.434;2023-04-09T07:44:38;102540.44;;;7.97;91.17
73558;BME280;61829;53.286;10.434;2023-04-09T07:47:05;102536.50;;;8.13;91.01
73558;BME280;61829;53.286;10.434;2023-04-09T07:49:32;102539.16;;;8.24;88.35
73558;BME280;61829;53.286;10.434;2023-04-09T07:51:58;102545.44;;;8.34;88.73
73558;BME280;61829;53.286;10.434;2023-04-09T07:54:25;102536.84;;;8.51;88.51
73558;BME280;61829;53.286;10.434;2023-04-09T07:56:51;102534.63;;;8.57;86.29
73558;BME280;61829;53.286;10.434;2023-04-09T07:59:17;102532.66;;;8.59;83.78
73558;BME280;61829;53.286;10.434;2023-04-09T08:01:43;102537.25;;;8.68;83.07
73558;BME280;61829;53.286;10.434;2023-04-09T08:04:09;102534.66;;;8.77;82.01
73558;BME280;61829;53.286;10.434;2023-04-09T08:06:35;102530.19;;;8.88;81.38
73558;BME280;61829;53.286;10.434;2023-04-09T08:09:02;102525.72;;;8.98;80.56
73558;BME280;61829;53.286;10.434;2023-04-09T08:11:27;102531.47;;;9.14;80.70
73558;BME280;61829;53.286;10.434;2023-04-09T08:13:54;102526.72;;;9.28;79.60
73558;BME280;61829;53.286;10.434;2023-04-09T08:16:20;102534.13;;;9.35;79.47
73558;BME280;61829;53.286;10.434;2023-04-09T08:18:49;102528.00;;;9.33;79.21
73558;BME280;61829;53.286;10.434;2023-04-09T08:21:14;102527.03;;;9.34;79.11
73558;BME280;61829;53.286;10.434;2023-04-09T08:23:40;102518.69;;;9.37;78.92
73558;BME280;61829;53.286;10.434;2023-04-09T08:26:09;102522.53;;;9.44;78.53
73558;BME280;61829;53.286;10.434;2023-04-09T08:28:38;102524.25;;;9.46;78.07
73558;BME280;61829;53.286;10.434;2023-04-09T08:31:04;102522.81;;;9.41;78.26
73558;BME280;61829;53.286;10.434;2023-04-09T08:33:30;102526.78;;;9.47;78.73
73558;BME280;61829;53.286;10.434;2023-04-09T08:35:56;102529.66;;;9.55;78.99
73558;BME280;61829;53.286;10.434;2023-04-09T08:38:22;102532.47;;;9.54;77.09
73558;BME280;61829;53.286;10.434;2023-04-09T08:40:47;102529.94;;;9.52;78.25
73558;BME280;61829;53.286;10.434;2023-04-09T08:43:14;102539.03;;;9.61;77.54
73558;BME280;61829;53.286;10.434;2023-04-09T08:45:43;102528.44;;;9.69;77.92
73558;BME280;61829;53.286;10.434;2023-04-09T08:48:12;102542.06;;;9.77;77.40
73558;BME280;61829;53.286;10.434;2023-04-09T08:50:38;102535.69;;;9.78;75.68
73558;BME280;61829;53.286;10.434;2023-04-09T08:53:05;102537.53;;;9.78;75.69
73558;BME280;61829;53.286;10.434;2023-04-09T08:55:31;102537.66;;;9.76;75.63
73558;BME280;61829;53.286;10.434;2023-04-09T08:58:06;102539.94;;;9.81;74.90
73558;BME280;61829;53.286;10.434;2023-04-09T09:00:32;102534.16;;;9.85;75.11
73558;BME280;61829;53.286;10.434;2023-04-09T09:03:07;102531.47;;;9.85;75.20
73558;BME280;61829;53.286;10.434;2023-04-09T09:05:41;102530.47;;;9.96;75.25
73558;BME280;61829;53.286;10.434;2023-04-09T09:08:08;102537.56;;;9.97;73.82
73558;BME280;61829;53.286;10.434;2023-04-09T09:10:40;102535.44;;;10.10;73.49
73558;BME280;61829;53.286;10.434;2023-04-09T09:15:47;102541.91;;;10.29;72.30
73558;BME280;61829;53.286;10.434;2023-04-09T09:18:16;102535.25;;;10.43;71.08
73558;BME280;61829;53.286;10.434;2023-04-09T09:20:42;102538.66;;;10.45;71.32
73558;BME280;61829;53.286;10.434;2023-04-09T09:23:09;102541.63;;;10.51;70.39
73558;BME280;61829;53.286;10.434;2023-04-09T09:25:41;102544.16;;;10.53;70.54
73558;BME280;61829;53.286;10.434;2023-04-09T09:28:10;102538.63;;;10.54;69.85
73558;BME280;61829;53.286;10.434;2023-04-09T09:30:37;102541.75;;;10.69;71.53
73558;BME280;61829;53.286;10.434;2023-04-09T09:33:09;102541.88;;;10.77;69.44
73558;BME280;61829;53.286;10.434;2023-04-09T09:36:05;102538.91;;;10.90;69.11
73558;BME280;61829;53.286;10.434;2023-04-09T09:38:32;102539.16;;;10.97;68.20
73558;BME280;61829;53.286;10.434;2023-04-09T09:41:15;102525.38;;;11.00;67.46
73558;BME280;61829;53.286;10.434;2023-04-09T09:43:41;102526.88;;;11.12;68.74
73558;BME280;61829;53.286;10.434;2023-04-09T09:46:07;102518.78;;;11.22;68.15
73558;BME280;61829;53.286;10.434;2023-04-09T09:48:34;102529.53;;;11.32;67.51
73558;BME280;61829;53.286;10.434;2023-04-09T09:51:07;102519.69;;;11.40;67.62
73558;BME280;61829;53.286;10.434;2023-04-09T09:53:37;102518.75;;;11.59;65.85
73558;BME280;61829;53.286;10.434;2023-04-09T09:56:04;102521.25;;;11.71;66.26
73558;BME280;61829;53.286;10.434;2023-04-09T09:58:47;102519.50;;;11.79;65.61
73558;BME280;61829;53.286;10.434;2023-04-09T10:01:16;102514.22;;;11.87;64.58
73558;BME280;61829;53.286;10.434;2023-04-09T10:03:43;102519.28;;;12.00;64.50
73558;BME280;61829;53.286;10.434;2023-04-09T10:06:10;102516.94;;;12.05;64.20
73558;BME280;61829;53.286;10.434;2023-04-09T10:08:39;102516.88;;;12.33;64.11
73558;BME280;61829;53.286;10.434;2023-04-09T10:11:06;102519.25;;;12.54;62.89
73558;BME280;61829;53.286;10.434;2023-04-09T10:13:57;102510.69;;;12.85;62.91
73558;BME280;61829;53.286;10.434;2023-04-09T10:16:22;102508.38;;;12.90;61.09
73558;BME280;61829;53.286;10.434;2023-04-09T10:18:49;102507.50;;;13.15;60.56
73558;BME280;61829;53.286;10.434;2023-04-09T10:21:29;102504.41;;;13.28;61.30
73558;BME280;61829;53.286;10.434;2023-04-09T10:23:58;102501.78;;;13.53;60.00
73558;BME280;61829;53.286;10.434;2023-04-09T10:26:25;102509.84;;;13.79;60.44
73558;BME280;61829;53.286;10.434;2023-04-09T10:29:03;102498.72;;;13.90;58.65
73558;BME280;61829;53.286;10.434;2023-04-09T10:32:06;102503.31;;;14.06;58.58
73558;BME280;61829;53.286;10.434;2023-04-09T10:34:40;102494.00;;;14.08;58.60
73558;BME280;61829;53.286;10.434;2023-04-09T10:37:08;102496.88;;;14.23;58.47
73558;BME280;61829;53.286;10.434;2023-04-09T10:39:45;102494.03;;;14.41;56.76
73558;BME280;61829;53.286;10.434;2023-04-09T10:42:13;102496.91;;;14.80;56.58
73558;BME280;61829;53.286;10.434;2023-04-09T10:44:41;102496.72;;;14.82;56.40
73558;BME280;61829;53.286;10.434;2023-04-09T10:47:07;102487.72;;;15.06;56.05
73558;BME280;61829;53.286;10.434;2023-04-09T10:49:36;102488.16;;;15.26;55.92
73558;BME280;61829;53.286;10.434;2023-04-09T10:59:36;102485.91;;;15.38;54.43
73558;BME280;61829;53.286;10.434;2023-04-09T11:02:16;102484.91;;;15.70;53.67
73558;BME280;61829;53.286;10.434;2023-04-09T11:07:42;102482.50;;;15.36;53.20
73558;BME280;61829;53.286;10.434;2023-04-09T11:10:09;102471.41;;;15.06;54.96
73558;BME280;61829;53.286;10.434;2023-04-09T11:12:35;102473.84;;;14.76;55.53
73558;BME280;61829;53.286;10.434;2023-04-09T11:15:01;102467.72;;;14.91;56.15
73558;BME280;61829;53.286;10.434;2023-04-09T11:17:27;102468.97;;;15.19;54.63
73558;BME280;61829;53.286;10.434;2023-04-09T11:19:54;102458.66;;;15.54;54.88
73558;BME280;61829;53.286;10.434;2023-04-09T11:22:23;102465.16;;;15.76;52.65
73558;BME280;61829;53.286;10.434;2023-04-09T11:24:49;102465.97;;;15.85;53.06
73558;BME280;61829;53.286;10.434;2023-04-09T11:27:15;102462.66;;;15.75;54.12
73558;BME280;61829;53.286;10.434;2023-04-09T11:29:44;102450.69;;;15.84;53.72
73558;BME280;61829;53.286;10.434;2023-04-09T11:32:11;102464.22;;;15.69;52.36
73558;BME280;61829;53.286;10.434;2023-04-09T11:34:37;102459.97;;;15.58;54.32
73558;BME280;61829;53.286;10.434;2023-04-09T11:37:03;102451.44;;;15.30;54.62
73558;BME280;61829;53.286;10.434;2023-04-09T11:39:36;102445.78;;;15.40;52.92
73558;BME280;61829;53.286;10.434;2023-04-09T11:42:02;102447.47;;;15.10;54.42
73558;BME280;61829;53.286;10.434;2023-04-09T11:44:28;102452.59;;;14.96;55.85
73558;BME280;61829;53.286;10.434;2023-04-09T11:46:56;102451.66;;;14.65;55.21
73558;BME280;61829;53.286;10.434;2023-04-09T11:49:24;102454.53;;;14.55;57.49
73558;BME280;61829;53.286;10.434;2023-04-09T11:51:50;102454.38;;;14.56;57.26
73558;BME280;61829;53.286;10.434;2023-04-09T11:54:34;102447.03;;;14.81;55.15
73558;BME280;61829;53.286;10.434;2023-04-09T11:57:04;102439.88;;;14.89;55.91
73558;BME280;61829;53.286;10.434;2023-04-09T11:59:30;102447.97;;;15.05;54.18
73558;BME280;61829;53.286;10.434;2023-04-09T12:01:59;102442.66;;;15.20;54.31
73558;BME280;61829;53.286;10.434;2023-04-09T12:04:26;102449.00;;;15.12;53.71
73558;BME280;61829;53.286;10.434;2023-04-09T12:06:58;102438.47;;;15.09;54.79
73558;BME280;61829;53.286;10.434;2023-04-09T12:09:24;102448.63;;;15.15;54.89
73558;BME280;61829;53.286;10.434;2023-04-09T12:11:50;102442.75;;;15.43;55.81
73558;BME280;61829;53.286;10.434;2023-04-09T12:14:17;102446.84;;;15.39;54.57
73558;BME280;61829;53.286;10.434;2023-04-09T12:16:43;102442.28;;;15.31;55.70
73558;BME280;61829;53.286;10.434;2023-04-09T12:19:11;102445.75;;;15.09;55.18
73558;BME280;61829;53.286;10.434;2023-04-09T12:24:15;102441.28;;;14.76;57.32
73558;BME280;61829;53.286;10.434;2023-04-09T12:26:42;102437.88;;;14.82;56.44
73558;BME280;61829;53.286;10.434;2023-04-09T12:29:08;102439.84;;;14.97;58.01
73558;BME280;61829;53.286;10.434;2023-04-09T12:31:34;102427.91;;;15.14;56.49
73558;BME280;61829;53.286;10.434;2023-04-09T12:34:00;102427.88;;;15.22;56.22
73558;BME280;61829;53.286;10.434;2023-04-09T12:36:26;102431.19;;;15.10;56.25
73558;BME280;61829;53.286;10.434;2023-04-09T12:38:52;102426.16;;;14.90;55.21
73558;BME280;61829;53.286;10.434;2023-04-09T12:41:18;102423.31;;;14.75;55.77
73558;BME280;61829;53.286;10.434;2023-04-09T12:43:44;102428.75;;;14.51;57.29
73558;BME280;61829;53.286;10.434;2023-04-09T12:46:11;102432.00;;;14.22;58.53
73558;BME280;61829;53.286;10.434;2023-04-09T12:48:38;102428.25;;;14.06;60.31
73558;BME280;61829;53.286;10.434;2023-04-09T12:51:04;102427.91;;;14.18;60.65
73558;BME280;61829;53.286;10.434;2023-04-09T12:53:31;102421.13;;;14.38;60.33
73558;BME280;61829;53.286;10.434;2023-04-09T12:55:57;102420.28;;;14.62;59.48
73558;BME280;61829;53.286;10.434;2023-04-09T12:58:24;102421.09;;;14.46;57.76
73558;BME280;61829;53.286;10.434;2023-04-09T13:00:50;102418.25;;;14.31;58.95
73558;BME280;61829;53.286;10.434;2023-04-09T13:03:19;102412.81;;;14.40;59.31
73558;BME280;61829;53.286;10.434;2023-04-09T13:05:45;102404.31;;;14.51;57.34
73558;BME280;61829;53.286;10.434;2023-04-09T13:08:11;102403.66;;;14.57;57.29
73558;BME280;61829;53.286;10.434;2023-04-09T13:10:37;102408.41;;;14.55;56.54
73558;BME280;61829;53.286;10.434;2023-04-09T13:13:03;102396.03;;;14.44;57.96